Terminal Aerodrome Forecast
Issued by NWS Springfield, MO

Current Version | Previous Version | Text Only | Print | Product List | Glossary On
Versions: 1 2 3 4 5 6 7 8 9 10 11 12
135
FTUS43 KSGF 211120
TAFSGF
TAF
KSGF 211120Z 2112/2212 16018G25KT P6SM SCT200 WS020/19040KT
     FM211600 17021G29KT P6SM BKN025
     FM212000 17018G25KT P6SM BKN040
     FM220500 19018G25KT 5SM -TSRA OVC020CB WS020/18040KT
     FM221000 30011KT 6SM -SHRA OVC008=

USA.gov is the U.S. government's official web portal to all federal, state and local government web resources and services.